sensor_id;sensor_type;location;lat;lon;timestamp;P1;durP1;ratioP1;P2;durP2;ratioP2
6463;SDS011;3265;42.694;23.282;2022-09-09T00:01:53;25.80;;;12.73;;
6463;SDS011;3265;42.694;23.282;2022-09-09T00:04:26;19.73;;;12.93;;
6463;SDS011;3265;42.694;23.282;2022-09-09T00:07:01;21.45;;;13.25;;
6463;SDS011;3265;42.694;23.282;2022-09-09T00:09:34;22.98;;;13.55;;
6463;SDS011;3265;42.694;23.282;2022-09-09T00:12:11;15.68;;;12.65;;
6463;SDS011;3265;42.694;23.282;2022-09-09T00:15:11;18.42;;;12.88;;
6463;SDS011;3265;42.694;23.282;2022-09-09T00:18:11;19.38;;;13.02;;
6463;SDS011;3265;42.694;23.282;2022-09-09T00:20:44;17.73;;;12.98;;
6463;SDS011;3265;42.694;23.282;2022-09-09T00:23:19;18.38;;;14.00;;
6463;SDS011;3265;42.694;23.282;2022-09-09T00:25:54;21.75;;;12.93;;
6463;SDS011;3265;42.694;23.282;2022-09-09T00:28:28;16.33;;;12.18;;
6463;SDS011;3265;42.694;23.282;2022-09-09T00:30:59;19.38;;;13.38;;
6463;SDS011;3265;42.694;23.282;2022-09-09T00:33:35;18.20;;;12.20;;
6463;SDS011;3265;42.694;23.282;2022-09-09T00:36:07;14.57;;;11.75;;
6463;SDS011;3265;42.694;23.282;2022-09-09T00:38:42;16.88;;;12.25;;
6463;SDS011;3265;42.694;23.282;2022-09-09T00:41:15;16.83;;;11.63;;
6463;SDS011;3265;42.694;23.282;2022-09-09T00:43:46;17.00;;;12.32;;
6463;SDS011;3265;42.694;23.282;2022-09-09T00:46:36;16.00;;;11.60;;
6463;SDS011;3265;42.694;23.282;2022-09-09T00:49:15;16.50;;;11.65;;
6463;SDS011;3265;42.694;23.282;2022-09-09T00:51:57;17.45;;;12.05;;
6463;SDS011;3265;42.694;23.282;2022-09-09T00:54:40;13.70;;;11.63;;
6463;SDS011;3265;42.694;23.282;2022-09-09T00:57:22;17.15;;;12.07;;
6463;SDS011;3265;42.694;23.282;2022-09-09T00:59:56;16.73;;;12.35;;
6463;SDS011;3265;42.694;23.282;2022-09-09T01:02:44;15.13;;;11.35;;
6463;SDS011;3265;42.694;23.282;2022-09-09T01:05:20;15.63;;;11.55;;
6463;SDS011;3265;42.694;23.282;2022-09-09T01:07:56;19.70;;;12.27;;
6463;SDS011;3265;42.694;23.282;2022-09-09T01:10:30;15.90;;;12.02;;
6463;SDS011;3265;42.694;23.282;2022-09-09T01:13:08;18.98;;;12.32;;
6463;SDS011;3265;42.694;23.282;2022-09-09T01:15:43;19.17;;;12.20;;
6463;SDS011;3265;42.694;23.282;2022-09-09T01:18:12;22.20;;;13.10;;
6463;SDS011;3265;42.694;23.282;2022-09-09T01:20:44;20.35;;;12.18;;
6463;SDS011;3265;42.694;23.282;2022-09-09T01:23:23;17.70;;;12.23;;
6463;SDS011;3265;42.694;23.282;2022-09-09T01:26:14;17.58;;;12.30;;
6463;SDS011;3265;42.694;23.282;2022-09-09T01:28:46;19.73;;;11.77;;
6463;SDS011;3265;42.694;23.282;2022-09-09T01:31:16;19.63;;;11.80;;
6463;SDS011;3265;42.694;23.282;2022-09-09T01:33:45;17.13;;;12.40;;
6463;SDS011;3265;42.694;23.282;2022-09-09T01:36:13;21.42;;;12.63;;
6463;SDS011;3265;42.694;23.282;2022-09-09T01:38:46;18.42;;;12.65;;
6463;SDS011;3265;42.694;23.282;2022-09-09T01:41:15;15.90;;;11.98;;
6463;SDS011;3265;42.694;23.282;2022-09-09T01:43:42;16.98;;;12.15;;
6463;SDS011;3265;42.694;23.282;2022-09-09T01:46:09;18.55;;;13.02;;
6463;SDS011;3265;42.694;23.282;2022-09-09T01:48:38;17.58;;;11.77;;
6463;SDS011;3265;42.694;23.282;2022-09-09T01:51:07;21.63;;;12.98;;
6463;SDS011;3265;42.694;23.282;2022-09-09T01:53:34;20.48;;;12.52;;
6463;SDS011;3265;42.694;23.282;2022-09-09T01:56:03;16.63;;;13.00;;
6463;SDS011;3265;42.694;23.282;2022-09-09T01:58:41;20.80;;;12.83;;
6463;SDS011;3265;42.694;23.282;2022-09-09T02:01:22;16.67;;;12.70;;
6463;SDS011;3265;42.694;23.282;2022-09-09T02:03:56;18.03;;;12.67;;
6463;SDS011;3265;42.694;23.282;2022-09-09T02:06:26;19.38;;;13.55;;
6463;SDS011;3265;42.694;23.282;2022-09-09T02:08:56;17.33;;;12.67;;
6463;SDS011;3265;42.694;23.282;2022-09-09T02:11:26;19.58;;;12.73;;
6463;SDS011;3265;42.694;23.282;2022-09-09T02:13:57;16.80;;;13.07;;
6463;SDS011;3265;42.694;23.282;2022-09-09T02:16:28;15.88;;;12.38;;
6463;SDS011;3265;42.694;23.282;2022-09-09T02:19:01;21.13;;;12.90;;
6463;SDS011;3265;42.694;23.282;2022-09-09T02:21:32;18.73;;;12.80;;
6463;SDS011;3265;42.694;23.282;2022-09-09T02:24:00;23.48;;;12.93;;
6463;SDS011;3265;42.694;23.282;2022-09-09T02:26:30;16.90;;;12.38;;
6463;SDS011;3265;42.694;23.282;2022-09-09T02:29:01;18.13;;;13.33;;
6463;SDS011;3265;42.694;23.282;2022-09-09T02:31:29;18.10;;;13.13;;
6463;SDS011;3265;42.694;23.282;2022-09-09T02:33:59;19.67;;;12.80;;
6463;SDS011;3265;42.694;23.282;2022-09-09T02:36:29;16.33;;;12.23;;
6463;SDS011;3265;42.694;23.282;2022-09-09T02:38:59;23.27;;;13.23;;
6463;SDS011;3265;42.694;23.282;2022-09-09T02:41:28;17.27;;;12.93;;
6463;SDS011;3265;42.694;23.282;2022-09-09T02:43:58;20.87;;;13.43;;
6463;SDS011;3265;42.694;23.282;2022-09-09T02:46:29;19.87;;;13.83;;
6463;SDS011;3265;42.694;23.282;2022-09-09T02:49:09;18.97;;;14.10;;
6463;SDS011;3265;42.694;23.282;2022-09-09T02:51:40;19.30;;;13.30;;
6463;SDS011;3265;42.694;23.282;2022-09-09T02:54:16;21.40;;;13.23;;
6463;SDS011;3265;42.694;23.282;2022-09-09T02:56:52;20.53;;;13.40;;
6463;SDS011;3265;42.694;23.282;2022-09-09T02:59:21;15.73;;;13.23;;
6463;SDS011;3265;42.694;23.282;2022-09-09T03:01:52;18.77;;;13.17;;
6463;SDS011;3265;42.694;23.282;2022-09-09T03:04:19;18.97;;;13.83;;
6463;SDS011;3265;42.694;23.282;2022-09-09T03:06:46;20.43;;;14.13;;
6463;SDS011;3265;42.694;23.282;2022-09-09T03:09:13;21.70;;;13.83;;
6463;SDS011;3265;42.694;23.282;2022-09-09T03:11:40;25.93;;;14.73;;
6463;SDS011;3265;42.694;23.282;2022-09-09T03:14:06;22.40;;;13.47;;
6463;SDS011;3265;42.694;23.282;2022-09-09T03:16:33;18.30;;;13.83;;
6463;SDS011;3265;42.694;23.282;2022-09-09T03:19:02;20.30;;;13.70;;
6463;SDS011;3265;42.694;23.282;2022-09-09T03:21:29;21.37;;;14.43;;
6463;SDS011;3265;42.694;23.282;2022-09-09T03:23:55;17.67;;;14.33;;
6463;SDS011;3265;42.694;23.282;2022-09-09T03:26:22;23.87;;;17.40;;
6463;SDS011;3265;42.694;23.282;2022-09-09T03:28:49;32.03;;;22.33;;
6463;SDS011;3265;42.694;23.282;2022-09-09T03:31:17;30.33;;;20.07;;
6463;SDS011;3265;42.694;23.282;2022-09-09T03:33:44;31.80;;;19.37;;
6463;SDS011;3265;42.694;23.282;2022-09-09T03:36:12;21.23;;;16.43;;
6463;SDS011;3265;42.694;23.282;2022-09-09T03:38:40;26.37;;;17.37;;
6463;SDS011;3265;42.694;23.282;2022-09-09T03:41:07;28.90;;;17.40;;
6463;SDS011;3265;42.694;23.282;2022-09-09T03:43:34;27.63;;;16.23;;
6463;SDS011;3265;42.694;23.282;2022-09-09T03:46:01;26.08;;;16.20;;
6463;SDS011;3265;42.694;23.282;2022-09-09T03:48:29;19.77;;;14.97;;
6463;SDS011;3265;42.694;23.282;2022-09-09T03:50:56;28.00;;;17.53;;
6463;SDS011;3265;42.694;23.282;2022-09-09T03:53:28;33.53;;;18.60;;
6463;SDS011;3265;42.694;23.282;2022-09-09T03:55:56;29.23;;;19.40;;
6463;SDS011;3265;42.694;23.282;2022-09-09T03:58:25;27.37;;;18.10;;
6463;SDS011;3265;42.694;23.282;2022-09-09T04:00:54;30.90;;;18.07;;
6463;SDS011;3265;42.694;23.282;2022-09-09T04:03:22;31.57;;;18.70;;
6463;SDS011;3265;42.694;23.282;2022-09-09T04:05:50;34.90;;;19.73;;
6463;SDS011;3265;42.694;23.282;2022-09-09T04:08:18;24.73;;;18.33;;
6463;SDS011;3265;42.694;23.282;2022-09-09T04:10:46;29.83;;;18.30;;
6463;SDS011;3265;42.694;23.282;2022-09-09T04:13:15;42.73;;;24.30;;
6463;SDS011;3265;42.694;23.282;2022-09-09T04:15:42;36.77;;;24.10;;
6463;SDS011;3265;42.694;23.282;2022-09-09T04:18:10;34.43;;;22.87;;
6463;SDS011;3265;42.694;23.282;2022-09-09T04:20:37;29.33;;;21.67;;
6463;SDS011;3265;42.694;23.282;2022-09-09T04:23:05;35.63;;;18.80;;
6463;SDS011;3265;42.694;23.282;2022-09-09T04:25:32;29.90;;;19.50;;
6463;SDS011;3265;42.694;23.282;2022-09-09T04:28:02;30.10;;;19.47;;
6463;SDS011;3265;42.694;23.282;2022-09-09T04:30:30;31.70;;;19.03;;
6463;SDS011;3265;42.694;23.282;2022-09-09T04:32:57;22.97;;;16.53;;
6463;SDS011;3265;42.694;23.282;2022-09-09T04:35:25;24.60;;;15.80;;
6463;SDS011;3265;42.694;23.282;2022-09-09T04:37:53;21.87;;;14.50;;
6463;SDS011;3265;42.694;23.282;2022-09-09T04:40:20;22.07;;;14.53;;
6463;SDS011;3265;42.694;23.282;2022-09-09T04:42:50;22.27;;;15.40;;
6463;SDS011;3265;42.694;23.282;2022-09-09T04:45:18;22.43;;;16.13;;
6463;SDS011;3265;42.694;23.282;2022-09-09T04:47:45;18.87;;;15.17;;
6463;SDS011;3265;42.694;23.282;2022-09-09T04:50:12;25.20;;;15.70;;
6463;SDS011;3265;42.694;23.282;2022-09-09T04:52:39;23.50;;;15.83;;
6463;SDS011;3265;42.694;23.282;2022-09-09T04:55:07;27.73;;;16.43;;
6463;SDS011;3265;42.694;23.282;2022-09-09T04:57:34;29.93;;;16.20;;
6463;SDS011;3265;42.694;23.282;2022-09-09T05:00:02;21.93;;;15.43;;
6463;SDS011;3265;42.694;23.282;2022-09-09T05:02:31;20.27;;;15.30;;
6463;SDS011;3265;42.694;23.282;2022-09-09T05:04:58;19.50;;;15.50;;
6463;SDS011;3265;42.694;23.282;2022-09-09T05:07:26;26.97;;;15.47;;
6463;SDS011;3265;42.694;23.282;2022-09-09T05:09:54;27.73;;;15.17;;
6463;SDS011;3265;42.694;23.282;2022-09-09T05:12:21;24.47;;;15.77;;
6463;SDS011;3265;42.694;23.282;2022-09-09T05:14:49;31.40;;;15.80;;
6463;SDS011;3265;42.694;23.282;2022-09-09T05:17:16;27.53;;;16.90;;
6463;SDS011;3265;42.694;23.282;2022-09-09T05:19:44;32.77;;;16.53;;
6463;SDS011;3265;42.694;23.282;2022-09-09T05:22:11;32.38;;;18.13;;
6463;SDS011;3265;42.694;23.282;2022-09-09T05:24:38;28.10;;;18.07;;
6463;SDS011;3265;42.694;23.282;2022-09-09T05:27:05;30.63;;;18.13;;
6463;SDS011;3265;42.694;23.282;2022-09-09T05:29:31;26.52;;;18.23;;
6463;SDS011;3265;42.694;23.282;2022-09-09T05:31:59;27.20;;;17.70;;
6463;SDS011;3265;42.694;23.282;2022-09-09T05:34:26;24.83;;;18.42;;
6463;SDS011;3265;42.694;23.282;2022-09-09T05:36:54;26.25;;;18.13;;
6463;SDS011;3265;42.694;23.282;2022-09-09T05:39:21;39.03;;;19.50;;
6463;SDS011;3265;42.694;23.282;2022-09-09T05:41:48;26.05;;;17.40;;
6463;SDS011;3265;42.694;23.282;2022-09-09T05:44:15;24.55;;;17.35;;
6463;SDS011;3265;42.694;23.282;2022-09-09T05:46:42;35.63;;;17.50;;
6463;SDS011;3265;42.694;23.282;2022-09-09T05:49:09;26.45;;;17.48;;
6463;SDS011;3265;42.694;23.282;2022-09-09T05:51:36;38.55;;;17.15;;
6463;SDS011;3265;42.694;23.282;2022-09-09T05:54:04;23.05;;;16.90;;
6463;SDS011;3265;42.694;23.282;2022-09-09T05:56:31;24.77;;;16.98;;
6463;SDS011;3265;42.694;23.282;2022-09-09T05:58:58;25.05;;;17.13;;
6463;SDS011;3265;42.694;23.282;2022-09-09T06:01:26;29.95;;;17.65;;
6463;SDS011;3265;42.694;23.282;2022-09-09T06:03:55;26.77;;;16.75;;
6463;SDS011;3265;42.694;23.282;2022-09-09T06:06:23;22.15;;;16.30;;
6463;SDS011;3265;42.694;23.282;2022-09-09T06:08:52;30.40;;;17.02;;
6463;SDS011;3265;42.694;23.282;2022-09-09T06:11:21;29.65;;;17.20;;
6463;SDS011;3265;42.694;23.282;2022-09-09T06:13:50;27.73;;;15.98;;
6463;SDS011;3265;42.694;23.282;2022-09-09T06:16:19;24.40;;;17.02;;
6463;SDS011;3265;42.694;23.282;2022-09-09T06:18:48;34.47;;;17.33;;
6463;SDS011;3265;42.694;23.282;2022-09-09T06:21:16;24.55;;;17.02;;
6463;SDS011;3265;42.694;23.282;2022-09-09T06:23:44;26.27;;;16.65;;
6463;SDS011;3265;42.694;23.282;2022-09-09T06:26:13;23.33;;;15.82;;
6463;SDS011;3265;42.694;23.282;2022-09-09T06:28:44;28.77;;;16.88;;
6463;SDS011;3265;42.694;23.282;2022-09-09T06:31:13;20.60;;;15.45;;
6463;SDS011;3265;42.694;23.282;2022-09-09T06:33:42;24.38;;;16.77;;
6463;SDS011;3265;42.694;23.282;2022-09-09T06:36:11;20.88;;;15.80;;
6463;SDS011;3265;42.694;23.282;2022-09-09T06:38:39;22.95;;;15.93;;
6463;SDS011;3265;42.694;23.282;2022-09-09T06:41:07;18.23;;;14.95;;
6463;SDS011;3265;42.694;23.282;2022-09-09T06:43:35;24.23;;;14.98;;
6463;SDS011;3265;42.694;23.282;2022-09-09T06:46:04;22.25;;;14.85;;
6463;SDS011;3265;42.694;23.282;2022-09-09T06:48:33;22.75;;;15.38;;
6463;SDS011;3265;42.694;23.282;2022-09-09T06:51:00;19.30;;;15.40;;
6463;SDS011;3265;42.694;23.282;2022-09-09T06:53:28;32.90;;;15.77;;
6463;SDS011;3265;42.694;23.282;2022-09-09T06:55:56;24.33;;;14.82;;
6463;SDS011;3265;42.694;23.282;2022-09-09T06:58:23;35.50;;;15.52;;
6463;SDS011;3265;42.694;23.282;2022-09-09T07:00:49;20.70;;;14.75;;
6463;SDS011;3265;42.694;23.282;2022-09-09T07:03:17;26.58;;;15.18;;
6463;SDS011;3265;42.694;23.282;2022-09-09T07:05:53;23.83;;;14.88;;
6463;SDS011;3265;42.694;23.282;2022-09-09T07:08:21;21.85;;;15.20;;
6463;SDS011;3265;42.694;23.282;2022-09-09T07:10:48;28.15;;;16.63;;
6463;SDS011;3265;42.694;23.282;2022-09-09T07:13:16;19.38;;;15.10;;
6463;SDS011;3265;42.694;23.282;2022-09-09T07:15:46;21.65;;;15.07;;
6463;SDS011;3265;42.694;23.282;2022-09-09T07:18:13;24.20;;;15.27;;
6463;SDS011;3265;42.694;23.282;2022-09-09T07:20:42;22.10;;;15.43;;
6463;SDS011;3265;42.694;23.282;2022-09-09T07:23:09;23.02;;;15.23;;
6463;SDS011;3265;42.694;23.282;2022-09-09T07:25:36;17.40;;;14.32;;
6463;SDS011;3265;42.694;23.282;2022-09-09T07:28:03;19.83;;;14.00;;
6463;SDS011;3265;42.694;23.282;2022-09-09T07:30:30;24.33;;;14.68;;
6463;SDS011;3265;42.694;23.282;2022-09-09T07:32:57;19.27;;;13.60;;
6463;SDS011;3265;42.694;23.282;2022-09-09T07:35:24;19.10;;;13.52;;
6463;SDS011;3265;42.694;23.282;2022-09-09T07:37:53;24.50;;;13.30;;
6463;SDS011;3265;42.694;23.282;2022-09-09T07:40:20;21.73;;;12.95;;
6463;SDS011;3265;42.694;23.282;2022-09-09T07:42:47;30.77;;;13.82;;
6463;SDS011;3265;42.694;23.282;2022-09-09T07:45:14;16.45;;;12.48;;
6463;SDS011;3265;42.694;23.282;2022-09-09T07:47:41;23.77;;;12.35;;
6463;SDS011;3265;42.694;23.282;2022-09-09T07:50:08;18.98;;;11.30;;
6463;SDS011;3265;42.694;23.282;2022-09-09T07:52:36;18.50;;;11.63;;
6463;SDS011;3265;42.694;23.282;2022-09-09T07:55:05;18.48;;;11.48;;
6463;SDS011;3265;42.694;23.282;2022-09-09T07:57:31;20.55;;;11.18;;
6463;SDS011;3265;42.694;23.282;2022-09-09T07:59:58;18.27;;;11.80;;
6463;SDS011;3265;42.694;23.282;2022-09-09T08:02:25;17.30;;;11.10;;
6463;SDS011;3265;42.694;23.282;2022-09-09T08:04:54;18.98;;;10.35;;
6463;SDS011;3265;42.694;23.282;2022-09-09T08:07:21;19.30;;;10.35;;
6463;SDS011;3265;42.694;23.282;2022-09-09T08:09:48;18.02;;;10.30;;
6463;SDS011;3265;42.694;23.282;2022-09-09T08:12:16;17.80;;;9.98;;
6463;SDS011;3265;42.694;23.282;2022-09-09T08:14:43;13.30;;;9.80;;
6463;SDS011;3265;42.694;23.282;2022-09-09T08:17:10;17.40;;;9.15;;
6463;SDS011;3265;42.694;23.282;2022-09-09T08:19:37;12.38;;;9.35;;
6463;SDS011;3265;42.694;23.282;2022-09-09T08:22:04;14.65;;;8.13;;
6463;SDS011;3265;42.694;23.282;2022-09-09T08:24:30;14.00;;;8.80;;
6463;SDS011;3265;42.694;23.282;2022-09-09T08:26:57;17.75;;;8.90;;
6463;SDS011;3265;42.694;23.282;2022-09-09T08:29:26;13.30;;;9.25;;
6463;SDS011;3265;42.694;23.282;2022-09-09T08:31:53;14.45;;;8.52;;
6463;SDS011;3265;42.694;23.282;2022-09-09T08:34:22;26.30;;;8.15;;
6463;SDS011;3265;42.694;23.282;2022-09-09T08:36:51;15.43;;;8.60;;
6463;SDS011;3265;42.694;23.282;2022-09-09T08:39:18;9.82;;;7.75;;
6463;SDS011;3265;42.694;23.282;2022-09-09T08:47:55;11.40;;;7.20;;
6463;SDS011;3265;42.694;23.282;2022-09-09T08:50:39;15.70;;;7.45;;
6463;SDS011;3265;42.694;23.282;2022-09-09T08:53:09;14.43;;;8.77;;
6463;SDS011;3265;42.694;23.282;2022-09-09T08:55:42;13.63;;;8.40;;
6463;SDS011;3265;42.694;23.282;2022-09-09T08:58:14;16.33;;;8.20;;
6463;SDS011;3265;42.694;23.282;2022-09-09T09:01:00;15.02;;;8.30;;
6463;SDS011;3265;42.694;23.282;2022-09-09T09:03:47;13.95;;;8.30;;
6463;SDS011;3265;42.694;23.282;2022-09-09T09:06:23;11.70;;;8.40;;
6463;SDS011;3265;42.694;23.282;2022-09-09T09:09:04;14.52;;;9.25;;
6463;SDS011;3265;42.694;23.282;2022-09-09T09:11:35;17.10;;;8.50;;
6463;SDS011;3265;42.694;23.282;2022-09-09T09:14:05;13.05;;;8.35;;
6463;SDS011;3265;42.694;23.282;2022-09-09T09:16:43;16.80;;;8.10;;
6463;SDS011;3265;42.694;23.282;2022-09-09T09:19:15;10.93;;;8.88;;
6463;SDS011;3265;42.694;23.282;2022-09-09T09:21:48;12.23;;;8.70;;
6463;SDS011;3265;42.694;23.282;2022-09-09T09:24:19;11.60;;;8.10;;
6463;SDS011;3265;42.694;23.282;2022-09-09T09:26:49;8.70;;;6.68;;
6463;SDS011;3265;42.694;23.282;2022-09-09T09:29:18;15.55;;;8.57;;
6463;SDS011;3265;42.694;23.282;2022-09-09T09:31:48;11.02;;;7.82;;
6463;SDS011;3265;42.694;23.282;2022-09-09T09:34:20;12.80;;;8.20;;
6463;SDS011;3265;42.694;23.282;2022-09-09T09:36:52;15.98;;;8.82;;
6463;SDS011;3265;42.694;23.282;2022-09-09T09:39:24;11.93;;;7.25;;
6463;SDS011;3265;42.694;23.282;2022-09-09T09:41:52;10.77;;;7.60;;
6463;SDS011;3265;42.694;23.282;2022-09-09T09:44:24;13.15;;;7.22;;
6463;SDS011;3265;42.694;23.282;2022-09-09T09:47:04;12.93;;;7.75;;
6463;SDS011;3265;42.694;23.282;2022-09-09T09:49:33;14.55;;;7.22;;
6463;SDS011;3265;42.694;23.282;2022-09-09T09:52:00;16.15;;;7.68;;
6463;SDS011;3265;42.694;23.282;2022-09-09T09:54:28;13.80;;;7.65;;
6463;SDS011;3265;42.694;23.282;2022-09-09T09:57:06;13.35;;;7.57;;
6463;SDS011;3265;42.694;23.282;2022-09-09T09:59:35;9.57;;;7.88;;
6463;SDS011;3265;42.694;23.282;2022-09-09T10:02:19;13.63;;;7.97;;
6463;SDS011;3265;42.694;23.282;2022-09-09T10:05:00;11.05;;;8.02;;
6463;SDS011;3265;42.694;23.282;2022-09-09T10:07:27;11.50;;;8.02;;
6463;SDS011;3265;42.694;23.282;2022-09-09T10:09:55;12.13;;;7.70;;
6463;SDS011;3265;42.694;23.282;2022-09-09T10:12:26;17.60;;;8.13;;
6463;SDS011;3265;42.694;23.282;2022-09-09T10:15:02;9.63;;;6.63;;
6463;SDS011;3265;42.694;23.282;2022-09-09T10:17:44;16.30;;;8.35;;
6463;SDS011;3265;42.694;23.282;2022-09-09T10:20:24;9.98;;;7.55;;
6463;SDS011;3265;42.694;23.282;2022-09-09T10:23:05;15.95;;;8.63;;
6463;SDS011;3265;42.694;23.282;2022-09-09T10:25:52;13.15;;;8.85;;
6463;SDS011;3265;42.694;23.282;2022-09-09T10:28:41;12.05;;;8.00;;
6463;SDS011;3265;42.694;23.282;2022-09-09T10:31:20;12.43;;;7.72;;
6463;SDS011;3265;42.694;23.282;2022-09-09T10:33:56;12.95;;;7.65;;
6463;SDS011;3265;42.694;23.282;2022-09-09T10:36:31;15.88;;;8.52;;
6463;SDS011;3265;42.694;23.282;2022-09-09T10:38:59;14.25;;;8.10;;
6463;SDS011;3265;42.694;23.282;2022-09-09T10:44:27;12.88;;;8.05;;
6463;SDS011;3265;42.694;23.282;2022-09-09T10:47:14;13.48;;;8.25;;
6463;SDS011;3265;42.694;23.282;2022-09-09T10:52:48;13.85;;;9.35;;
6463;SDS011;3265;42.694;23.282;2022-09-09T10:55:24;11.80;;;9.00;;
6463;SDS011;3265;42.694;23.282;2022-09-09T10:57:57;16.77;;;9.82;;
6463;SDS011;3265;42.694;23.282;2022-09-09T11:00:28;17.20;;;8.40;;
6463;SDS011;3265;42.694;23.282;2022-09-09T11:03:04;16.00;;;8.50;;
6463;SDS011;3265;42.694;23.282;2022-09-09T11:05:35;18.65;;;8.77;;
6463;SDS011;3265;42.694;23.282;2022-09-09T11:08:09;12.20;;;8.20;;
6463;SDS011;3265;42.694;23.282;2022-09-09T11:10:41;15.98;;;9.18;;
6463;SDS011;3265;42.694;23.282;2022-09-09T11:13:18;15.63;;;9.40;;
6463;SDS011;3265;42.694;23.282;2022-09-09T11:15:52;16.98;;;9.40;;
6463;SDS011;3265;42.694;23.282;2022-09-09T11:18:24;8.15;;;6.38;;
6463;SDS011;3265;42.694;23.282;2022-09-09T11:21:07;15.88;;;7.75;;
6463;SDS011;3265;42.694;23.282;2022-09-09T11:23:43;16.20;;;8.98;;
6463;SDS011;3265;42.694;23.282;2022-09-09T11:26:16;16.23;;;8.98;;
6463;SDS011;3265;42.694;23.282;2022-09-09T11:28:52;19.23;;;8.68;;
6463;SDS011;3265;42.694;23.282;2022-09-09T11:31:33;11.23;;;7.63;;
6463;SDS011;3265;42.694;23.282;2022-09-09T11:34:18;13.00;;;8.80;;
6463;SDS011;3265;42.694;23.282;2022-09-09T11:36:59;16.73;;;8.25;;
6463;SDS011;3265;42.694;23.282;2022-09-09T11:39:42;17.25;;;8.90;;
6463;SDS011;3265;42.694;23.282;2022-09-09T11:42:29;16.08;;;8.32;;
6463;SDS011;3265;42.694;23.282;2022-09-09T11:44:56;14.85;;;9.25;;
6463;SDS011;3265;42.694;23.282;2022-09-09T11:47:34;16.58;;;8.80;;
6463;SDS011;3265;42.694;23.282;2022-09-09T11:50:08;15.27;;;9.23;;
6463;SDS011;3265;42.694;23.282;2022-09-09T11:52:39;8.95;;;5.78;;
6463;SDS011;3265;42.694;23.282;2022-09-09T11:55:11;11.13;;;6.07;;
6463;SDS011;3265;42.694;23.282;2022-09-09T11:57:56;12.02;;;6.57;;
6463;SDS011;3265;42.694;23.282;2022-09-09T12:00:28;12.80;;;8.68;;
6463;SDS011;3265;42.694;23.282;2022-09-09T12:02:59;14.65;;;9.00;;
6463;SDS011;3265;42.694;23.282;2022-09-09T12:05:34;13.82;;;8.40;;
6463;SDS011;3265;42.694;23.282;2022-09-09T12:08:05;10.45;;;7.35;;
6463;SDS011;3265;42.694;23.282;2022-09-09T12:10:37;7.60;;;6.40;;
6463;SDS011;3265;42.694;23.282;2022-09-09T12:13:08;7.85;;;6.45;;
6463;SDS011;3265;42.694;23.282;2022-09-09T12:15:46;12.25;;;8.50;;
6463;SDS011;3265;42.694;23.282;2022-09-09T12:18:14;14.65;;;8.75;;
6463;SDS011;3265;42.694;23.282;2022-09-09T12:20:51;14.48;;;8.25;;
6463;SDS011;3265;42.694;23.282;2022-09-09T12:23:27;14.43;;;8.65;;
6463;SDS011;3265;42.694;23.282;2022-09-09T12:28:57;10.45;;;7.75;;
6463;SDS011;3265;42.694;23.282;2022-09-09T12:31:33;14.38;;;8.05;;
6463;SDS011;3265;42.694;23.282;2022-09-09T12:34:12;18.60;;;8.13;;
6463;SDS011;3265;42.694;23.282;2022-09-09T12:36:42;16.27;;;7.97;;
6463;SDS011;3265;42.694;23.282;2022-09-09T12:39:17;12.63;;;8.27;;
6463;SDS011;3265;42.694;23.282;2022-09-09T12:41:52;15.05;;;8.27;;
6463;SDS011;3265;42.694;23.282;2022-09-09T12:44:22;12.55;;;8.25;;
6463;SDS011;3265;42.694;23.282;2022-09-09T12:46:49;14.93;;;8.85;;
6463;SDS011;3265;42.694;23.282;2022-09-09T12:49:29;19.48;;;10.43;;
6463;SDS011;3265;42.694;23.282;2022-09-09T12:52:01;16.15;;;8.52;;
6463;SDS011;3265;42.694;23.282;2022-09-09T12:54:32;13.30;;;8.52;;
6463;SDS011;3265;42.694;23.282;2022-09-09T12:57:01;12.40;;;6.43;;
6463;SDS011;3265;42.694;23.282;2022-09-09T12:59:35;16.10;;;6.72;;
6463;SDS011;3265;42.694;23.282;2022-09-09T13:02:11;13.95;;;6.90;;
6463;SDS011;3265;42.694;23.282;2022-09-09T13:04:44;13.45;;;6.30;;
6463;SDS011;3265;42.694;23.282;2022-09-09T13:07:12;20.05;;;7.43;;
6463;SDS011;3265;42.694;23.282;2022-09-09T13:09:43;9.40;;;5.93;;
6463;SDS011;3265;42.694;23.282;2022-09-09T13:12:12;17.55;;;6.80;;
6463;SDS011;3265;42.694;23.282;2022-09-09T13:14:42;17.70;;;6.90;;
6463;SDS011;3265;42.694;23.282;2022-09-09T13:17:21;17.75;;;7.25;;
6463;SDS011;3265;42.694;23.282;2022-09-09T13:19:49;16.02;;;6.35;;
6463;SDS011;3265;42.694;23.282;2022-09-09T13:22:20;17.02;;;6.93;;
6463;SDS011;3265;42.694;23.282;2022-09-09T13:24:59;15.38;;;6.57;;
6463;SDS011;3265;42.694;23.282;2022-09-09T13:27:29;15.20;;;6.93;;
6463;SDS011;3265;42.694;23.282;2022-09-09T13:29:59;10.93;;;6.75;;
6463;SDS011;3265;42.694;23.282;2022-09-09T13:32:27;11.38;;;6.53;;
6463;SDS011;3265;42.694;23.282;2022-09-09T13:34:57;10.70;;;6.25;;
6463;SDS011;3265;42.694;23.282;2022-09-09T13:37:26;13.95;;;6.70;;
6463;SDS011;3265;42.694;23.282;2022-09-09T13:40:01;14.20;;;7.00;;
6463;SDS011;3265;42.694;23.282;2022-09-09T13:42:30;13.20;;;6.05;;
6463;SDS011;3265;42.694;23.282;2022-09-09T13:45:00;15.10;;;6.57;;
6463;SDS011;3265;42.694;23.282;2022-09-09T13:47:30;13.07;;;6.55;;
6463;SDS011;3265;42.694;23.282;2022-09-09T13:49:58;19.92;;;7.97;;
6463;SDS011;3265;42.694;23.282;2022-09-09T13:52:44;20.35;;;6.78;;
6463;SDS011;3265;42.694;23.282;2022-09-09T13:55:14;10.40;;;5.53;;
6463;SDS011;3265;42.694;23.282;2022-09-09T13:57:49;12.70;;;6.05;;
6463;SDS011;3265;42.694;23.282;2022-09-09T14:00:17;14.43;;;6.72;;
6463;SDS011;3265;42.694;23.282;2022-09-09T14:02:43;15.63;;;6.05;;
6463;SDS011;3265;42.694;23.282;2022-09-09T14:05:10;16.17;;;6.82;;
6463;SDS011;3265;42.694;23.282;2022-09-09T14:07:37;15.98;;;6.28;;
6463;SDS011;3265;42.694;23.282;2022-09-09T14:10:06;17.95;;;7.50;;
6463;SDS011;3265;42.694;23.282;2022-09-09T14:12:35;19.98;;;7.13;;
6463;SDS011;3265;42.694;23.282;2022-09-09T14:15:02;16.45;;;6.00;;
6463;SDS011;3265;42.694;23.282;2022-09-09T14:17:30;17.05;;;6.47;;
6463;SDS011;3265;42.694;23.282;2022-09-09T14:19:57;22.20;;;6.53;;
6463;SDS011;3265;42.694;23.282;2022-09-09T14:22:24;17.40;;;7.75;;
6463;SDS011;3265;42.694;23.282;2022-09-09T14:24:51;18.38;;;6.78;;
6463;SDS011;3265;42.694;23.282;2022-09-09T14:27:18;14.40;;;6.63;;
6463;SDS011;3265;42.694;23.282;2022-09-09T14:29:46;19.17;;;7.53;;
6463;SDS011;3265;42.694;23.282;2022-09-09T14:32:13;12.55;;;7.43;;
6463;SDS011;3265;42.694;23.282;2022-09-09T14:34:40;15.73;;;7.20;;
6463;SDS011;3265;42.694;23.282;2022-09-09T14:37:06;13.15;;;8.13;;
6463;SDS011;3265;42.694;23.282;2022-09-09T14:39:33;17.67;;;7.97;;
6463;SDS011;3265;42.694;23.282;2022-09-09T14:42:00;15.13;;;8.18;;
6463;SDS011;3265;42.694;23.282;2022-09-09T14:44:27;16.40;;;8.00;;
6463;SDS011;3265;42.694;23.282;2022-09-09T14:46:55;16.50;;;9.10;;
6463;SDS011;3265;42.694;23.282;2022-09-09T14:49:23;17.17;;;8.38;;
6463;SDS011;3265;42.694;23.282;2022-09-09T14:51:50;17.33;;;8.63;;
6463;SDS011;3265;42.694;23.282;2022-09-09T14:54:17;16.42;;;9.18;;
6463;SDS011;3265;42.694;23.282;2022-09-09T14:56:44;17.40;;;8.70;;
6463;SDS011;3265;42.694;23.282;2022-09-09T14:59:12;19.38;;;8.23;;
6463;SDS011;3265;42.694;23.282;2022-09-09T15:01:39;16.48;;;8.60;;
6463;SDS011;3265;42.694;23.282;2022-09-09T15:04:10;17.77;;;9.52;;
6463;SDS011;3265;42.694;23.282;2022-09-09T15:06:39;15.57;;;8.75;;
6463;SDS011;3265;42.694;23.282;2022-09-09T15:09:09;15.85;;;8.82;;
6463;SDS011;3265;42.694;23.282;2022-09-09T15:11:37;19.08;;;10.95;;
6463;SDS011;3265;42.694;23.282;2022-09-09T15:14:04;15.10;;;9.25;;
6463;SDS011;3265;42.694;23.282;2022-09-09T15:16:31;16.67;;;8.52;;
6463;SDS011;3265;42.694;23.282;2022-09-09T15:18:59;21.08;;;8.73;;